createdAt,value
2023-02-03T00:00:14.147Z,19.71
2023-02-03T00:01:14.144Z,19.71
2023-02-03T00:02:14.182Z,19.73
2023-02-03T00:03:14.137Z,19.73
2023-02-03T00:04:14.103Z,19.73
2023-02-03T00:05:14.124Z,19.73
2023-02-03T00:06:14.083Z,19.71
2023-02-03T00:07:14.102Z,19.71
2023-02-03T00:08:14.055Z,19.71
2023-02-03T00:09:14.067Z,19.73
2023-02-03T00:10:14.059Z,19.73
2023-02-03T00:11:14.061Z,19.71
2023-02-03T00:12:14.023Z,19.73
2023-02-03T00:13:14.027Z,19.73
2023-02-03T00:14:14.009Z,19.73
2023-02-03T00:15:13.995Z,19.71
2023-02-03T00:16:14.072Z,19.71
2023-02-03T00:17:13.972Z,19.73
2023-02-03T00:18:13.954Z,19.71
2023-02-03T00:19:15.525Z,19.71
2023-02-03T00:20:13.939Z,19.71
2023-02-03T00:21:13.934Z,19.71
2023-02-03T00:22:13.905Z,19.73
2023-02-03T00:23:13.926Z,19.71
2023-02-03T00:24:13.917Z,19.71
2023-02-03T00:25:13.898Z,19.73
2023-02-03T00:26:13.920Z,19.71
2023-02-03T00:27:13.876Z,19.71
2023-02-03T00:28:14.034Z,19.71
2023-02-03T00:29:13.894Z,19.71
2023-02-03T00:30:13.868Z,19.73
2023-02-03T00:31:13.934Z,19.69
2023-02-03T00:32:13.906Z,19.73
2023-02-03T00:33:13.828Z,19.71
2023-02-03T00:34:13.788Z,19.73
2023-02-03T00:35:13.818Z,19.71
2023-02-03T00:36:13.767Z,19.69
2023-02-03T00:37:14.074Z,19.71
2023-02-03T00:38:13.759Z,19.71
2023-02-03T00:39:13.765Z,19.71
2023-02-03T00:40:13.719Z,19.71
2023-02-03T00:41:14.372Z,19.71
2023-02-03T00:42:13.699Z,19.69
2023-02-03T00:43:13.731Z,19.71
2023-02-03T00:44:13.690Z,19.69
2023-02-03T00:45:13.694Z,19.71
2023-02-03T00:46:13.754Z,19.69
2023-02-03T00:47:13.705Z,19.69
2023-02-03T00:48:13.646Z,19.69
2023-02-03T00:49:15.401Z,19.71
2023-02-03T00:50:13.620Z,19.71
2023-02-03T00:51:13.642Z,19.73
2023-02-03T00:52:13.617Z,19.69
2023-02-03T00:53:13.609Z,19.71
2023-02-03T00:54:13.626Z,19.71
2023-02-03T00:55:13.617Z,19.71
2023-02-03T00:56:13.580Z,19.69
2023-02-03T00:57:13.564Z,19.69
2023-02-03T00:58:13.530Z,19.71
2023-02-03T00:59:13.551Z,19.69
2023-02-03T01:00:14.032Z,19.71
2023-02-03T01:01:13.569Z,19.69
2023-02-03T01:02:13.545Z,19.69
2023-02-03T01:03:13.525Z,19.69
2023-02-03T01:04:13.466Z,19.69
2023-02-03T01:05:13.478Z,19.71
2023-02-03T01:06:14.528Z,19.69
2023-02-03T01:07:13.481Z,19.68
2023-02-03T01:08:13.446Z,19.71
2023-02-03T01:09:13.438Z,19.69
2023-02-03T01:10:13.420Z,19.69
2023-02-03T01:11:13.448Z,19.69
2023-02-03T01:12:13.389Z,19.69
2023-02-03T01:13:13.406Z,19.71
2023-02-03T01:14:13.368Z,19.68
2023-02-03T01:15:13.367Z,19.69
2023-02-03T01:16:13.517Z,19.68
2023-02-03T01:17:13.350Z,19.69
2023-02-03T01:18:13.499Z,19.68
2023-02-03T01:19:13.837Z,19.69
2023-02-03T01:20:13.318Z,19.68
2023-02-03T01:21:13.328Z,19.68
2023-02-03T01:22:13.291Z,19.68
2023-02-03T01:23:13.298Z,19.68
2023-02-03T01:24:13.300Z,19.68
2023-02-03T01:25:13.283Z,19.69
2023-02-03T01:26:13.326Z,19.66
2023-02-03T01:27:14.236Z,19.68
2023-02-03T01:28:13.284Z,19.69
2023-02-03T01:29:13.224Z,19.69
2023-02-03T01:30:13.225Z,19.69
2023-02-03T01:31:13.361Z,19.68
2023-02-03T01:32:13.184Z,19.68
2023-02-03T01:33:13.196Z,19.69
2023-02-03T01:34:13.191Z,19.69
2023-02-03T01:35:13.183Z,19.68
2023-02-03T01:36:13.213Z,19.66
2023-02-03T01:37:13.147Z,19.69
2023-02-03T01:38:13.154Z,19.68
2023-02-03T01:39:13.130Z,19.69
2023-02-03T01:40:13.107Z,19.68
2023-02-03T01:41:13.152Z,19.68
2023-02-03T01:42:13.121Z,19.69
2023-02-03T01:43:13.088Z,19.68
2023-02-03T01:44:13.101Z,19.68
2023-02-03T01:45:13.760Z,19.68
2023-02-03T01:46:13.106Z,19.68
2023-02-03T01:47:13.058Z,19.68
2023-02-03T01:48:13.056Z,19.68
2023-02-03T01:49:13.039Z,19.66
2023-02-03T01:50:13.008Z,19.69
2023-02-03T01:51:13.016Z,19.69
2023-02-03T01:52:12.986Z,19.68
2023-02-03T01:53:12.995Z,19.69
2023-02-03T01:54:12.986Z,19.68
2023-02-03T01:55:12.997Z,19.68
2023-02-03T01:56:12.997Z,19.68
2023-02-03T01:57:12.945Z,19.68
2023-02-03T01:58:12.926Z,19.68
2023-02-03T01:59:12.936Z,19.68
2023-02-03T02:00:12.911Z,19.68
2023-02-03T02:01:12.981Z,19.66
2023-02-03T02:02:12.936Z,19.68
2023-02-03T02:03:12.932Z,19.68
2023-02-03T02:04:13.055Z,19.68
2023-02-03T02:05:12.879Z,19.68
2023-02-03T02:06:12.859Z,19.66
2023-02-03T02:07:12.837Z,19.68
2023-02-03T02:08:12.816Z,19.68
2023-02-03T02:09:12.827Z,19.68
2023-02-03T02:10:12.858Z,19.68
2023-02-03T02:11:12.814Z,19.68
2023-02-03T02:12:12.817Z,19.68
2023-02-03T02:13:12.803Z,19.69
2023-02-03T02:14:12.797Z,19.68
2023-02-03T02:15:12.800Z,19.68
2023-02-03T02:16:12.792Z,19.68
2023-02-03T02:17:12.763Z,19.68
2023-02-03T02:18:12.730Z,19.68
2023-02-03T02:19:12.733Z,19.66
2023-02-03T02:20:12.709Z,19.66
2023-02-03T02:21:13.117Z,19.69
2023-02-03T02:22:12.701Z,19.68
2023-02-03T02:23:12.684Z,19.68
2023-02-03T02:24:12.687Z,19.68
2023-02-03T02:25:12.676Z,19.68
2023-02-03T02:26:12.637Z,19.68
2023-02-03T02:27:12.693Z,19.66
2023-02-03T02:28:12.704Z,19.69
2023-02-03T02:29:12.683Z,19.68
2023-02-03T02:30:12.587Z,19.68
2023-02-03T02:31:12.645Z,19.68
2023-02-03T02:32:12.631Z,19.66
2023-02-03T02:33:12.587Z,19.66
2023-02-03T02:34:12.564Z,19.68
2023-02-03T02:35:12.605Z,19.66
2023-02-03T02:36:12.547Z,19.66
2023-02-03T02:37:13.099Z,19.66
2023-02-03T02:38:12.540Z,19.68
2023-02-03T02:39:12.529Z,19.68
2023-02-03T02:40:12.498Z,19.66
2023-02-03T02:41:12.508Z,19.68
2023-02-03T02:42:12.488Z,19.66
2023-02-03T02:43:12.499Z,19.66
2023-02-03T02:44:15.703Z,19.68
2023-02-03T02:45:12.471Z,19.66
2023-02-03T02:46:12.527Z,19.68
2023-02-03T02:47:12.430Z,19.66
2023-02-03T02:48:12.438Z,19.68
2023-02-03T02:49:12.410Z,19.66
2023-02-03T02:50:12.456Z,19.68
2023-02-03T02:51:12.408Z,19.66
2023-02-03T02:52:12.390Z,19.66
2023-02-03T02:53:12.386Z,19.68
2023-02-03T02:54:12.386Z,19.66
2023-02-03T02:55:12.349Z,19.68
2023-02-03T02:56:13.725Z,19.68
2023-02-03T02:57:12.340Z,19.68
2023-02-03T02:58:12.562Z,19.69
2023-02-03T02:59:12.321Z,19.66
2023-02-03T03:00:12.318Z,19.66
2023-02-03T03:01:12.342Z,19.68
2023-02-03T03:02:12.300Z,19.66
2023-02-03T03:03:12.270Z,19.69
2023-02-03T03:04:12.295Z,19.69
2023-02-03T03:05:12.307Z,19.66
2023-02-03T03:06:12.240Z,19.66
2023-02-03T03:07:12.228Z,19.69
2023-02-03T03:08:12.228Z,19.68
2023-02-03T03:09:13.488Z,19.68
2023-02-03T03:10:12.217Z,19.68
2023-02-03T03:11:12.199Z,19.66
2023-02-03T03:12:12.202Z,19.66
2023-02-03T03:13:12.171Z,19.66
2023-02-03T03:14:12.212Z,19.65
2023-02-03T03:15:12.160Z,19.66
2023-02-03T03:16:12.227Z,19.68
2023-02-03T03:17:12.132Z,19.66
2023-02-03T03:18:12.175Z,19.66
2023-02-03T03:19:12.108Z,19.66
2023-02-03T03:20:12.131Z,19.66
2023-02-03T03:21:12.760Z,19.65
2023-02-03T03:22:12.099Z,19.66
2023-02-03T03:23:12.061Z,19.66
2023-02-03T03:24:12.090Z,19.68
2023-02-03T03:25:12.054Z,19.66
2023-02-03T03:26:12.260Z,19.68
2023-02-03T03:27:12.042Z,19.66
2023-02-03T03:28:12.148Z,19.68
2023-02-03T03:29:12.032Z,19.66
2023-02-03T03:30:12.077Z,19.68
2023-02-03T03:31:12.088Z,19.66
2023-02-03T03:32:12.019Z,19.66
2023-02-03T03:33:12.008Z,19.66
2023-02-03T03:34:11.973Z,19.66
2023-02-03T03:35:11.942Z,19.66
2023-02-03T03:36:11.960Z,19.66
2023-02-03T03:37:11.928Z,19.66
2023-02-03T03:38:11.923Z,19.66
2023-02-03T03:39:11.951Z,19.68
2023-02-03T03:40:11.940Z,19.66
2023-02-03T03:41:12.081Z,19.66
2023-02-03T03:42:11.890Z,19.66
2023-02-03T03:43:11.863Z,19.66
2023-02-03T03:44:11.871Z,19.66
2023-02-03T03:45:11.888Z,19.65
2023-02-03T03:46:11.865Z,19.66
2023-02-03T03:47:11.904Z,19.66
2023-02-03T03:48:11.828Z,19.66
2023-02-03T03:49:11.792Z,19.66
2023-02-03T03:50:11.811Z,19.65
2023-02-03T03:51:11.959Z,19.66
2023-02-03T03:52:11.811Z,19.65
2023-02-03T03:53:11.776Z,19.65
2023-02-03T03:54:11.792Z,19.66
2023-02-03T03:55:11.776Z,19.65
2023-02-03T03:56:12.123Z,19.65
2023-02-03T03:57:11.733Z,19.65
2023-02-03T03:58:11.721Z,19.66
2023-02-03T03:59:11.701Z,19.68
2023-02-03T04:00:11.697Z,19.66
2023-02-03T04:01:11.682Z,19.66
2023-02-03T04:02:11.889Z,19.68
2023-02-03T04:03:12.562Z,19.66
2023-02-03T04:04:11.688Z,19.65
2023-02-03T04:05:11.630Z,19.68
2023-02-03T04:06:11.652Z,19.66
2023-02-03T04:07:11.627Z,19.65
2023-02-03T04:09:07.885Z,19.68
2023-02-03T04:10:07.866Z,19.66
2023-02-03T04:11:07.862Z,19.65
2023-02-03T04:12:07.856Z,19.65
2023-02-03T04:13:07.863Z,19.65
2023-02-03T04:14:07.855Z,19.65
2023-02-03T04:15:07.879Z,19.66
2023-02-03T04:16:07.845Z,19.65
2023-02-03T04:17:08.455Z,19.65
2023-02-03T04:18:07.779Z,19.66
2023-02-03T04:19:08.602Z,19.66
2023-02-03T04:20:07.764Z,19.66
2023-02-03T04:21:07.753Z,19.68
2023-02-03T04:22:07.794Z,19.65
2023-02-03T04:23:07.746Z,19.66
2023-02-03T04:24:07.715Z,19.65
2023-02-03T04:25:07.724Z,19.65
2023-02-03T04:26:07.787Z,19.66
2023-02-03T04:27:07.736Z,19.66
2023-02-03T04:28:07.728Z,19.65
2023-02-03T04:29:07.675Z,19.65
2023-02-03T04:30:07.672Z,19.65
2023-02-03T04:31:07.807Z,19.66
2023-02-03T04:32:07.706Z,19.66
2023-02-03T04:33:07.639Z,19.65
2023-02-03T04:34:08.565Z,19.65
2023-02-03T04:35:08.160Z,19.66
2023-02-03T04:36:07.583Z,19.65
2023-02-03T04:37:07.618Z,19.65
2023-02-03T04:38:07.570Z,19.66
2023-02-03T04:39:07.593Z,19.66
2023-02-03T04:40:07.599Z,19.66
2023-02-03T04:41:07.544Z,19.66
2023-02-03T04:42:07.551Z,19.66
2023-02-03T04:43:07.531Z,19.65
2023-02-03T04:44:07.508Z,19.66
2023-02-03T04:45:07.577Z,19.66
2023-02-03T04:46:07.571Z,19.65
2023-02-03T04:47:07.507Z,19.66
2023-02-03T04:48:07.485Z,19.65
2023-02-03T04:49:07.476Z,19.66
2023-02-03T04:50:07.479Z,19.66
2023-02-03T04:51:07.472Z,19.66
2023-02-03T04:52:07.427Z,19.65
2023-02-03T04:53:07.438Z,19.66
2023-02-03T04:54:07.405Z,19.65
2023-02-03T04:55:07.422Z,19.65
2023-02-03T04:56:07.690Z,19.66
2023-02-03T04:57:07.391Z,19.66
2023-02-03T04:58:07.365Z,19.65
2023-02-03T04:59:07.380Z,19.66
2023-02-03T05:00:07.367Z,19.65
2023-02-03T05:01:07.430Z,19.65
2023-02-03T05:02:07.398Z,19.66
2023-02-03T05:03:07.350Z,19.65
2023-02-03T05:04:07.306Z,19.65
2023-02-03T05:05:07.332Z,19.65
2023-02-03T05:06:07.296Z,19.66
2023-02-03T05:07:07.314Z,19.66
2023-02-03T05:08:07.262Z,19.66
2023-02-03T05:09:07.281Z,19.66
2023-02-03T05:10:07.243Z,19.68
2023-02-03T05:11:07.256Z,19.66
2023-02-03T05:12:07.578Z,19.66
2023-02-03T05:13:07.233Z,19.68
2023-02-03T05:14:07.214Z,19.68
2023-02-03T05:15:07.205Z,19.68
2023-02-03T05:16:07.220Z,19.66
2023-02-03T05:17:07.207Z,19.66
2023-02-03T05:18:07.179Z,19.69
2023-02-03T05:19:07.188Z,19.68
2023-02-03T05:20:07.167Z,19.69
2023-02-03T05:21:07.135Z,19.69
2023-02-03T05:22:07.232Z,19.66
2023-02-03T05:23:07.125Z,19.69
2023-02-03T05:24:07.137Z,19.68
2023-02-03T05:25:07.103Z,19.68
2023-02-03T05:26:07.208Z,19.68
2023-02-03T05:27:07.576Z,19.69
2023-02-03T05:28:07.128Z,19.68
2023-02-03T05:29:08.024Z,19.68
2023-02-03T05:30:07.057Z,19.68
2023-02-03T05:31:08.032Z,19.69
2023-02-03T05:32:07.175Z,19.71
2023-02-03T05:33:07.009Z,19.69
2023-02-03T05:34:07.030Z,19.71
2023-02-03T05:35:07.008Z,19.71
2023-02-03T05:36:07.008Z,19.69
2023-02-03T05:37:07.027Z,19.69
2023-02-03T05:38:06.978Z,19.71
2023-02-03T05:39:06.994Z,19.69
2023-02-03T05:40:06.987Z,19.69
2023-02-03T05:41:06.927Z,19.71
2023-02-03T05:42:06.936Z,19.71
2023-02-03T05:43:06.917Z,19.73
2023-02-03T05:44:06.933Z,19.73
2023-02-03T05:45:06.888Z,19.71
2023-02-03T05:46:06.950Z,19.73
2023-02-03T05:47:06.871Z,19.73
2023-02-03T05:48:06.896Z,19.73
2023-02-03T05:49:06.860Z,19.73
2023-02-03T05:50:06.877Z,19.73
2023-02-03T05:51:06.837Z,19.73
2023-02-03T05:52:06.841Z,19.73
2023-02-03T05:53:06.814Z,19.73
2023-02-03T05:54:06.865Z,19.73
2023-02-03T05:55:06.810Z,19.73
2023-02-03T05:56:06.796Z,19.74
2023-02-03T05:57:07.432Z,19.74
2023-02-03T05:58:06.765Z,19.73
2023-02-03T05:59:06.736Z,19.74
2023-02-03T06:00:07.732Z,19.73
2023-02-03T06:01:06.754Z,19.73
2023-02-03T06:02:06.745Z,19.74
2023-02-03T06:03:06.738Z,19.73
2023-02-03T06:04:06.876Z,19.73
2023-02-03T06:05:06.711Z,19.74
2023-02-03T06:06:06.702Z,19.73
2023-02-03T06:07:06.680Z,19.73
2023-02-03T06:08:06.678Z,19.74
2023-02-03T06:09:06.659Z,19.74
2023-02-03T06:10:06.649Z,19.73
2023-02-03T06:11:06.648Z,19.73
2023-02-03T06:12:06.637Z,19.74
2023-02-03T06:13:06.621Z,19.74
2023-02-03T06:14:06.620Z,19.73
2023-02-03T06:15:06.582Z,19.76
2023-02-03T06:16:06.619Z,19.73
2023-02-03T06:17:06.576Z,19.74
2023-02-03T06:18:06.558Z,19.73
2023-02-03T06:19:06.551Z,19.74
2023-02-03T06:20:06.548Z,19.74
2023-02-03T06:21:06.547Z,19.73
2023-02-03T06:22:06.565Z,19.74
2023-02-03T06:23:06.515Z,19.74
2023-02-03T06:24:06.550Z,19.74
2023-02-03T06:25:06.483Z,19.74
2023-02-03T06:26:06.493Z,19.76
2023-02-03T06:27:06.499Z,19.74
2023-02-03T06:28:06.522Z,19.73
2023-02-03T06:29:06.449Z,19.76
2023-02-03T06:30:06.476Z,19.74
2023-02-03T06:31:06.534Z,19.76
2023-02-03T06:32:06.494Z,19.74
2023-02-03T06:33:06.399Z,19.74
2023-02-03T06:34:06.416Z,19.76
2023-02-03T06:35:06.411Z,19.74
2023-02-03T06:36:06.399Z,19.76
2023-02-03T06:37:06.359Z,19.73
2023-02-03T06:38:06.386Z,19.74
2023-02-03T06:39:06.337Z,19.76
2023-02-03T06:40:06.368Z,19.74
2023-02-03T06:41:06.364Z,19.76
2023-02-03T06:42:06.318Z,19.76
2023-02-03T06:43:06.298Z,19.76
2023-02-03T06:44:06.340Z,19.76
2023-02-03T06:45:06.312Z,19.76
2023-02-03T06:46:06.315Z,19.76
2023-02-03T06:47:06.290Z,19.77
2023-02-03T06:48:06.294Z,19.76
2023-02-03T06:49:06.240Z,19.77
2023-02-03T06:50:06.251Z,19.76
2023-02-03T06:51:06.240Z,19.76
2023-02-03T06:52:06.301Z,19.76
2023-02-03T06:53:06.198Z,19.76
2023-02-03T06:54:06.217Z,19.76
2023-02-03T06:55:06.168Z,19.76
2023-02-03T06:56:06.196Z,19.76
2023-02-03T06:57:06.158Z,19.76
2023-02-03T06:58:06.179Z,19.77
2023-02-03T06:59:06.127Z,19.77
2023-02-03T07:00:06.177Z,19.77
2023-02-03T07:01:06.120Z,19.76
2023-02-03T07:02:06.117Z,19.77
2023-02-03T07:03:07.065Z,19.77
2023-02-03T07:04:06.100Z,19.76
2023-02-03T07:05:06.060Z,19.77
2023-02-03T07:06:06.091Z,19.77
2023-02-03T07:07:06.071Z,19.77
2023-02-03T07:08:06.057Z,19.77
2023-02-03T07:09:06.041Z,19.77
2023-02-03T07:10:06.028Z,19.77
2023-02-03T07:11:06.032Z,19.77
2023-02-03T07:12:06.028Z,19.76
2023-02-03T07:13:05.991Z,19.76
2023-02-03T07:14:06.014Z,19.76
2023-02-03T07:15:05.957Z,19.76
2023-02-03T07:16:06.020Z,19.77
2023-02-03T07:17:05.979Z,19.76
2023-02-03T07:18:05.969Z,19.78
2023-02-03T07:19:05.967Z,19.78
2023-02-03T07:20:05.932Z,19.77
2023-02-03T07:21:05.900Z,19.77
2023-02-03T07:22:05.930Z,19.77
2023-02-03T07:23:05.918Z,19.77
2023-02-03T07:24:05.889Z,19.77
2023-02-03T07:25:05.858Z,19.77
2023-02-03T07:26:05.905Z,19.77
2023-02-03T07:27:05.798Z,19.77
2023-02-03T07:28:05.870Z,19.77
2023-02-03T07:29:05.839Z,19.78
2023-02-03T07:30:05.831Z,19.78
2023-02-03T07:31:05.871Z,19.77
2023-02-03T07:32:05.993Z,19.77
2023-02-03T07:33:05.739Z,19.78
2023-02-03T07:34:05.802Z,19.78
2023-02-03T07:35:05.780Z,19.78
2023-02-03T07:36:05.804Z,19.78
2023-02-03T07:37:05.729Z,19.78
2023-02-03T07:38:05.780Z,19.78
2023-02-03T07:39:05.711Z,19.78
2023-02-03T07:40:05.690Z,19.80
2023-02-03T07:41:05.722Z,19.80
2023-02-03T07:42:06.389Z,19.78
2023-02-03T07:43:05.712Z,19.80
2023-02-03T07:44:05.639Z,19.78
2023-02-03T07:45:05.619Z,19.78
2023-02-03T07:46:05.757Z,19.80
2023-02-03T07:47:05.649Z,19.80
2023-02-03T07:48:05.636Z,19.80
2023-02-03T07:49:05.608Z,19.78
2023-02-03T07:50:05.688Z,19.80
2023-02-03T07:51:05.597Z,19.78
2023-02-03T07:52:05.613Z,19.80
2023-02-03T07:53:05.529Z,19.81
2023-02-03T07:54:05.538Z,19.78
2023-02-03T07:55:05.568Z,19.78
2023-02-03T07:56:05.580Z,19.78
2023-02-03T07:57:05.539Z,19.80
2023-02-03T07:58:05.543Z,19.78
2023-02-03T07:59:05.549Z,19.78
2023-02-03T08:00:05.544Z,19.78
2023-02-03T08:01:05.514Z,19.78
2023-02-03T08:02:05.581Z,19.78
2023-02-03T08:03:05.479Z,19.80
2023-02-03T08:04:05.502Z,19.80
2023-02-03T08:05:05.535Z,19.80
2023-02-03T08:06:05.466Z,19.78
2023-02-03T08:07:05.460Z,19.80
2023-02-03T08:08:06.089Z,19.78
2023-02-03T08:09:05.417Z,19.80
2023-02-03T08:10:05.415Z,19.78
2023-02-03T08:11:05.637Z,19.80
2023-02-03T08:12:05.407Z,19.78
2023-02-03T08:13:05.332Z,19.78
2023-02-03T08:14:05.340Z,19.78
2023-02-03T08:15:05.374Z,19.80
2023-02-03T08:16:05.446Z,19.80
2023-02-03T08:17:05.370Z,19.80
2023-02-03T08:18:05.318Z,19.80
2023-02-03T08:19:05.257Z,19.80
2023-02-03T08:20:05.321Z,19.80
2023-02-03T08:21:05.297Z,19.78
2023-02-03T08:22:05.328Z,19.78
2023-02-03T08:23:05.278Z,19.78
2023-02-03T08:24:05.284Z,19.80
2023-02-03T08:25:05.217Z,19.80
2023-02-03T08:26:05.239Z,19.78
2023-02-03T08:27:05.210Z,19.80
2023-02-03T08:28:05.222Z,19.78
2023-02-03T08:29:05.174Z,19.78
2023-02-03T08:30:05.820Z,19.78
2023-02-03T08:31:05.276Z,19.80
2023-02-03T08:32:06.249Z,19.80
2023-02-03T08:33:05.159Z,19.78
2023-02-03T08:34:05.153Z,19.80
2023-02-03T08:35:05.107Z,19.78
2023-02-03T08:36:05.104Z,19.78
2023-02-03T08:37:05.081Z,19.78
2023-02-03T08:38:05.637Z,19.80
2023-02-03T08:39:05.056Z,19.80
2023-02-03T08:40:05.060Z,19.78
2023-02-03T08:41:05.051Z,19.80
2023-02-03T08:42:05.058Z,19.78
2023-02-03T08:43:05.083Z,19.80
2023-02-03T08:44:05.039Z,19.80
2023-02-03T08:45:05.422Z,19.78
2023-02-03T08:46:05.126Z,19.80
2023-02-03T08:47:05.036Z,19.78
2023-02-03T08:48:05.203Z,19.78
2023-02-03T08:49:04.949Z,19.78
2023-02-03T08:50:04.971Z,19.80
2023-02-03T08:51:04.930Z,19.78
2023-02-03T08:52:05.019Z,19.80
2023-02-03T08:53:04.930Z,19.78
2023-02-03T08:54:04.922Z,19.80
2023-02-03T08:55:04.901Z,19.80
2023-02-03T08:56:05.017Z,19.78
2023-02-03T08:57:04.886Z,19.78
2023-02-03T08:58:05.134Z,19.80
2023-02-03T08:59:04.866Z,19.78
2023-02-03T09:00:04.859Z,19.80
2023-02-03T09:01:04.885Z,19.78
2023-02-03T09:02:04.884Z,19.78
2023-02-03T09:03:04.871Z,19.78
2023-02-03T09:04:04.829Z,19.77
2023-02-03T09:05:05.151Z,19.80
2023-02-03T09:06:04.802Z,19.77
2023-02-03T09:07:04.778Z,19.78
2023-02-03T09:08:04.960Z,19.78
2023-02-03T09:10:01.586Z,19.80
2023-02-03T09:11:01.503Z,19.78
2023-02-03T09:12:01.503Z,19.77
2023-02-03T09:13:01.494Z,19.78
2023-02-03T09:14:01.497Z,19.77
2023-02-03T09:15:01.458Z,19.77
2023-02-03T09:16:01.492Z,19.77
2023-02-03T09:17:01.431Z,19.77
2023-02-03T09:18:01.430Z,19.77
2023-02-03T09:19:01.404Z,19.78
2023-02-03T09:20:01.507Z,19.77
2023-02-03T09:21:01.402Z,19.78
2023-02-03T09:22:01.423Z,19.77
2023-02-03T09:23:01.397Z,19.76
2023-02-03T09:24:01.395Z,19.78
2023-02-03T09:25:01.406Z,19.77
2023-02-03T09:26:01.610Z,19.78
2023-02-03T09:27:01.345Z,19.76
2023-02-03T09:28:01.360Z,19.77
2023-02-03T09:29:01.324Z,19.76
2023-02-03T09:30:01.319Z,19.77
2023-02-03T09:31:01.344Z,19.76
2023-02-03T09:32:01.415Z,19.77
2023-02-03T09:33:01.303Z,19.77
2023-02-03T09:34:01.262Z,19.77
2023-02-03T09:35:01.261Z,19.77
2023-02-03T09:36:01.268Z,19.78
2023-02-03T09:37:01.245Z,19.77
2023-02-03T09:38:01.308Z,19.77
2023-02-03T09:39:01.205Z,19.78
2023-02-03T09:40:01.233Z,19.77
2023-02-03T09:41:11.243Z,19.78
2023-02-03T09:42:02.195Z,19.78
2023-02-03T09:43:01.188Z,19.78
2023-02-03T09:44:01.213Z,19.77
2023-02-03T09:45:01.151Z,19.77
2023-02-03T09:46:01.214Z,19.77
2023-02-03T09:47:01.175Z,19.76
2023-02-03T09:48:01.132Z,19.77
2023-02-03T09:49:01.147Z,19.77
2023-02-03T09:50:01.130Z,19.77
2023-02-03T09:51:01.092Z,19.77
2023-02-03T09:52:01.179Z,19.77
2023-02-03T09:53:01.063Z,19.77
2023-02-03T09:54:01.073Z,19.76
2023-02-03T09:55:01.091Z,19.77
2023-02-03T09:56:01.103Z,19.78
2023-02-03T09:57:01.045Z,19.77
2023-02-03T09:58:01.056Z,19.76
2023-02-03T09:59:01.027Z,19.77
2023-02-03T10:00:01.071Z,19.77
2023-02-03T10:01:01.041Z,19.77
2023-02-03T10:02:00.995Z,19.78
2023-02-03T10:03:01.059Z,19.76
2023-02-03T10:04:01.005Z,19.76
2023-02-03T10:05:00.974Z,19.77
2023-02-03T10:06:00.966Z,19.77
2023-02-03T10:07:00.917Z,19.77
2023-02-03T10:08:00.935Z,19.77
2023-02-03T10:09:00.893Z,19.77
2023-02-03T10:10:00.925Z,19.77
2023-02-03T10:11:01.103Z,19.77
2023-02-03T10:12:00.883Z,19.77
2023-02-03T10:13:00.864Z,19.77
2023-02-03T10:14:00.906Z,19.77
2023-02-03T10:15:00.834Z,19.77
2023-02-03T10:16:00.954Z,19.78
2023-02-03T10:17:00.901Z,19.78
2023-02-03T10:18:00.843Z,19.78
2023-02-03T10:19:02.612Z,19.78
2023-02-03T10:20:00.860Z,19.77
2023-02-03T10:21:00.790Z,19.77
2023-02-03T10:22:00.777Z,19.78
2023-02-03T10:23:00.763Z,19.78
2023-02-03T10:24:00.769Z,19.78
2023-02-03T10:25:00.784Z,19.77
2023-02-03T10:26:00.788Z,19.78
2023-02-03T10:27:00.735Z,19.77
2023-02-03T10:28:00.830Z,19.78
2023-02-03T10:29:00.727Z,19.80
2023-02-03T10:30:00.716Z,19.78
2023-02-03T10:31:00.710Z,19.78
2023-02-03T10:32:00.882Z,19.77
2023-02-03T10:33:00.691Z,19.78
2023-02-03T10:34:00.654Z,19.78
2023-02-03T10:35:00.653Z,19.78
2023-02-03T10:36:00.676Z,19.78
2023-02-03T10:37:00.653Z,19.77
2023-02-03T10:38:00.628Z,19.78
2023-02-03T10:39:00.648Z,19.78
2023-02-03T10:40:00.614Z,19.77
2023-02-03T10:41:00.677Z,19.81
2023-02-03T10:42:00.596Z,19.78
2023-02-03T10:43:00.564Z,19.78
2023-02-03T10:44:00.559Z,19.80
2023-02-03T10:45:00.572Z,19.78
2023-02-03T10:46:00.627Z,19.80
2023-02-03T10:47:00.556Z,19.78
2023-02-03T10:48:00.525Z,19.78
2023-02-03T10:49:00.534Z,19.78
2023-02-03T10:50:00.547Z,19.78
2023-02-03T10:51:00.487Z,19.78
2023-02-03T10:52:00.524Z,19.78
2023-02-03T10:53:00.482Z,19.78
2023-02-03T10:54:00.468Z,19.77
2023-02-03T10:55:00.536Z,19.80
2023-02-03T10:56:00.435Z,19.77
2023-02-03T10:57:00.482Z,19.78
2023-02-03T10:58:00.465Z,19.78
2023-02-03T10:59:00.405Z,19.77
2023-02-03T11:00:00.402Z,19.78
2023-02-03T11:01:00.372Z,19.80
2023-02-03T11:02:00.468Z,19.80
2023-02-03T11:03:00.429Z,19.80
2023-02-03T11:04:00.350Z,19.78
2023-02-03T11:05:01.307Z,19.78
2023-02-03T11:06:00.336Z,19.78
2023-02-03T11:07:00.347Z,19.80
2023-02-03T11:08:00.326Z,19.80
2023-02-03T11:09:00.289Z,19.77
2023-02-03T11:10:00.315Z,19.78
2023-02-03T11:11:00.277Z,19.80
2023-02-03T11:12:00.299Z,19.78
2023-02-03T11:13:00.254Z,19.78
2023-02-03T11:14:00.252Z,19.78
2023-02-03T11:15:00.223Z,19.80
2023-02-03T11:16:00.349Z,19.80
2023-02-03T11:17:00.198Z,19.80
2023-02-03T11:18:00.215Z,19.78
2023-02-03T11:19:00.218Z,19.78
2023-02-03T11:20:00.312Z,19.78
2023-02-03T11:21:00.221Z,19.80
2023-02-03T11:22:00.222Z,19.78
2023-02-03T11:23:00.141Z,19.80
2023-02-03T11:24:00.158Z,19.80
2023-02-03T11:25:00.159Z,19.77
2023-02-03T11:26:00.155Z,19.78
2023-02-03T11:27:00.133Z,19.77
2023-02-03T11:28:00.205Z,19.80
2023-02-03T11:29:00.102Z,19.78
2023-02-03T11:30:00.167Z,19.80
2023-02-03T11:31:00.123Z,19.77
2023-02-03T11:32:00.231Z,19.78
2023-02-03T11:33:00.094Z,19.78
2023-02-03T11:34:00.155Z,19.80
2023-02-03T11:35:00.039Z,19.78
2023-02-03T11:36:00.091Z,19.78
2023-02-03T11:36:59.995Z,19.78
2023-02-03T11:38:00.036Z,19.78
2023-02-03T11:39:00.020Z,19.80
2023-02-03T11:39:59.973Z,19.78
2023-02-03T11:41:00.122Z,19.78
2023-02-03T11:41:59.979Z,19.80
2023-02-03T11:42:59.933Z,19.78
2023-02-03T11:43:59.933Z,19.80
2023-02-03T11:44:59.936Z,19.81
2023-02-03T11:45:59.946Z,19.78
2023-02-03T11:46:59.903Z,19.78
2023-02-03T11:47:59.917Z,19.80
2023-02-03T11:48:59.888Z,19.80
2023-02-03T11:49:59.925Z,19.80
2023-02-03T11:50:59.891Z,19.80
2023-02-03T11:51:59.866Z,19.80
2023-02-03T11:52:59.857Z,19.80
2023-02-03T11:53:59.835Z,19.80
2023-02-03T11:55:00.788Z,19.78
2023-02-03T11:55:59.833Z,19.80
2023-02-03T11:56:59.818Z,19.80
2023-02-03T11:57:59.817Z,19.80
2023-02-03T11:58:59.816Z,19.80
2023-02-03T11:59:59.780Z,19.80
2023-02-03T12:00:59.805Z,19.81
2023-02-03T12:02:00.450Z,19.80
2023-02-03T12:02:59.855Z,19.78
2023-02-03T12:03:59.732Z,19.80
2023-02-03T12:05:01.026Z,19.80
2023-02-03T12:05:59.756Z,19.80
2023-02-03T12:06:59.744Z,19.80
2023-02-03T12:07:59.706Z,19.80
2023-02-03T12:08:59.745Z,19.78
2023-02-03T12:09:59.694Z,19.81
2023-02-03T12:10:59.645Z,19.81
2023-02-03T12:11:59.703Z,19.80
2023-02-03T12:12:59.639Z,19.80
2023-02-03T12:13:59.651Z,19.80
2023-02-03T12:14:59.677Z,19.80
2023-02-03T12:15:59.641Z,19.80
2023-02-03T12:16:59.589Z,19.80
2023-02-03T12:17:59.596Z,19.81
2023-02-03T12:18:59.587Z,19.80
2023-02-03T12:19:59.609Z,19.80
2023-02-03T12:20:59.608Z,19.81
2023-02-03T12:21:59.555Z,19.80
2023-02-03T12:22:59.562Z,19.80
2023-02-03T12:23:59.525Z,19.80
2023-02-03T12:24:59.546Z,19.80
2023-02-03T12:25:59.547Z,19.78
2023-02-03T12:26:59.544Z,19.80
2023-02-03T12:27:59.563Z,19.81
2023-02-03T12:28:59.492Z,19.81
2023-02-03T12:29:59.466Z,19.80
2023-02-03T12:30:59.512Z,19.81
2023-02-03T12:31:59.563Z,19.81
2023-02-03T12:32:59.451Z,19.78
2023-02-03T12:33:59.437Z,19.80
2023-02-03T12:34:59.407Z,19.80
2023-02-03T12:35:59.428Z,19.81
2023-02-03T12:36:59.450Z,19.80
2023-02-03T12:37:59.407Z,19.80
2023-02-03T12:38:59.359Z,19.83
2023-02-03T12:39:59.386Z,19.81
2023-02-03T12:40:59.336Z,19.81
2023-02-03T12:41:59.353Z,19.81
2023-02-03T12:42:59.327Z,19.83
2023-02-03T12:43:59.381Z,19.81
2023-02-03T12:44:59.297Z,19.81
2023-02-03T12:45:59.349Z,19.81
2023-02-03T12:46:59.334Z,19.81
2023-02-03T12:47:59.287Z,19.81
2023-02-03T12:48:59.257Z,19.81
2023-02-03T12:49:59.295Z,19.81
2023-02-03T12:50:59.273Z,19.81
2023-02-03T12:51:59.228Z,19.81
2023-02-03T12:52:59.205Z,19.81
2023-02-03T12:53:59.258Z,19.81